createdAt,value
2023-04-14T00:00:58.065Z,23.57
2023-04-14T00:02:35.752Z,24.63
2023-04-14T00:03:58.644Z,25.17
2023-04-14T00:05:20.543Z,24.59
2023-04-14T00:07:08.838Z,24.52
2023-04-14T00:08:39.179Z,24.61
2023-04-14T00:10:05.127Z,25.58
2023-04-14T00:11:34.577Z,24.80
2023-04-14T00:13:01.730Z,25.36
2023-04-14T00:14:47.187Z,26.07
2023-04-14T00:16:25.732Z,26.79
2023-04-14T00:17:55.824Z,27.42
2023-04-14T00:19:17.744Z,26.45
2023-04-14T00:21:03.068Z,25.59
2023-04-14T00:22:25.054Z,27.13
2023-04-14T00:23:58.622Z,33.83
2023-04-14T00:25:44.297Z,29.33
2023-04-14T00:27:18.036Z,28.74
2023-04-14T00:28:40.568Z,26.40
2023-04-14T00:30:08.447Z,28.59
2023-04-14T00:31:31.554Z,26.84
2023-04-14T00:32:55.988Z,26.90
2023-04-14T00:34:17.611Z,26.53
2023-04-14T00:35:47.303Z,25.93
2023-04-14T00:37:09.368Z,26.49
2023-04-14T00:38:59.237Z,24.87
2023-04-14T00:40:46.563Z,24.55
2023-04-14T00:42:19.995Z,26.35
2023-04-14T00:44:05.327Z,26.01
2023-04-14T00:45:39.206Z,45.59
2023-04-14T00:47:03.736Z,45.41
2023-04-14T00:48:27.879Z,39.55
2023-04-14T00:49:49.885Z,49.08
2023-04-14T00:51:24.029Z,126.59
2023-04-14T00:53:09.298Z,63.12
2023-04-14T00:54:33.552Z,51.29
2023-04-14T00:56:09.252Z,52.49
2023-04-14T00:57:43.539Z,29.36
2023-04-14T00:59:18.315Z,28.55
2023-04-14T01:00:52.486Z,27.61
2023-04-14T01:02:16.696Z,24.53
2023-04-14T01:03:53.191Z,29.11
2023-04-14T01:05:17.209Z,40.07
2023-04-14T01:06:52.846Z,26.47
2023-04-14T01:08:28.806Z,26.31
2023-04-14T01:10:12.960Z,26.51
2023-04-14T01:11:48.318Z,33.96
2023-04-14T01:13:33.684Z,44.05
2023-04-14T01:15:08.909Z,32.94
2023-04-14T01:16:50.098Z,31.02
2023-04-14T01:18:35.586Z,29.11
2023-04-14T01:20:09.052Z,27.64
2023-04-14T01:21:54.324Z,25.36
2023-04-14T01:23:20.532Z,27.02
2023-04-14T01:25:14.772Z,27.91
2023-04-14T01:27:02.938Z,27.37
2023-04-14T01:28:56.716Z,25.24
2023-04-14T01:30:30.385Z,26.25
2023-04-14T01:32:05.937Z,26.65
2023-04-14T01:33:37.537Z,27.32
2023-04-14T01:35:13.400Z,26.15
2023-04-14T01:36:50.360Z,28.49
2023-04-14T01:38:25.898Z,28.35
2023-04-14T01:40:09.283Z,27.40
2023-04-14T01:41:43.614Z,28.23
2023-04-14T01:43:07.304Z,28.04
2023-04-14T01:44:53.804Z,27.76
2023-04-14T01:46:42.243Z,28.64
2023-04-14T01:48:06.665Z,25.79
2023-04-14T01:49:40.748Z,26.60
2023-04-14T01:51:15.745Z,27.96
2023-04-14T01:52:57.537Z,27.88
2023-04-14T01:54:43.078Z,27.43
2023-04-14T01:56:29.548Z,26.89
2023-04-14T01:57:54.042Z,26.99
2023-04-14T01:59:40.414Z,27.05
2023-04-14T02:01:26.902Z,27.70
2023-04-14T02:03:12.726Z,28.06
2023-04-14T02:04:58.250Z,27.57
2023-04-14T02:06:44.383Z,27.08
2023-04-14T02:08:10.379Z,27.67
2023-04-14T02:09:46.482Z,26.98
2023-04-14T02:11:20.249Z,26.64
2023-04-14T02:12:55.917Z,24.59
2023-04-14T02:14:34.538Z,24.97
2023-04-14T02:16:08.020Z,25.03
2023-04-14T02:17:41.621Z,25.44
2023-04-14T02:19:23.846Z,24.43
2023-04-14T02:20:57.280Z,23.96
2023-04-14T02:22:34.552Z,23.60
2023-04-14T02:24:15.251Z,22.72
2023-04-14T02:25:56.525Z,23.12
2023-04-14T02:27:32.394Z,23.63
2023-04-14T02:29:09.713Z,23.12
2023-04-14T02:30:45.274Z,22.36
2023-04-14T02:32:20.956Z,21.98
2023-04-14T02:33:57.191Z,21.84
2023-04-14T02:35:42.724Z,21.94
2023-04-14T02:37:27.643Z,22.56
2023-04-14T02:39:03.665Z,21.68
2023-04-14T02:40:38.108Z,22.76
2023-04-14T02:42:12.574Z,23.96
2023-04-14T02:43:46.526Z,28.40
2023-04-14T02:45:21.807Z,38.79
2023-04-14T02:47:07.007Z,41.21
2023-04-14T02:49:04.678Z,42.56
2023-04-14T02:50:58.755Z,43.87
2023-04-14T02:52:33.863Z,38.69
2023-04-14T02:54:15.658Z,34.17
2023-04-14T02:56:03.891Z,29.89
2023-04-14T02:57:34.146Z,25.19
2023-04-14T02:58:58.213Z,25.01
2023-04-14T03:00:33.246Z,24.74
2023-04-14T03:01:59.496Z,24.31
2023-04-14T03:03:35.357Z,23.70
2023-04-14T03:05:17.232Z,22.87
2023-04-14T03:07:04.286Z,23.07
2023-04-14T03:08:49.989Z,22.20
2023-04-14T03:10:22.515Z,22.98
2023-04-14T03:12:18.666Z,22.20
2023-04-14T03:14:09.662Z,27.33
2023-04-14T03:15:55.098Z,33.16
2023-04-14T03:17:36.335Z,34.70
2023-04-14T03:19:23.445Z,31.46
2023-04-14T03:21:05.074Z,28.65
2023-04-14T03:22:41.251Z,27.74
2023-04-14T03:24:37.207Z,27.39
2023-04-14T03:26:26.281Z,30.96
2023-04-14T03:28:00.525Z,31.48
2023-04-14T03:29:34.104Z,29.59
2023-04-14T03:31:19.141Z,26.23
2023-04-14T03:33:07.978Z,25.17
2023-04-14T03:34:57.057Z,22.20
2023-04-14T03:36:43.392Z,22.84
2023-04-14T03:38:30.002Z,23.59
2023-04-14T03:40:14.615Z,23.18
2023-04-14T03:42:01.381Z,23.87
2023-04-14T03:43:35.206Z,23.47
2023-04-14T03:45:30.395Z,22.78
2023-04-14T03:47:24.906Z,22.08
2023-04-14T03:49:00.346Z,22.13
2023-04-14T03:50:45.466Z,21.96
2023-04-14T03:52:26.677Z,21.17
2023-04-14T03:54:02.643Z,20.78
2023-04-14T03:55:26.991Z,20.90
2023-04-14T03:57:12.506Z,20.32
2023-04-14T03:59:08.420Z,20.34
2023-04-14T04:00:55.405Z,19.73
2023-04-14T04:02:31.441Z,19.37
2023-04-14T04:04:14.828Z,20.39
2023-04-14T04:06:07.001Z,20.54
2023-04-14T04:07:54.386Z,20.28
2023-04-14T04:09:35.458Z,21.07
2023-04-14T04:11:21.003Z,20.92
2023-04-14T04:13:06.293Z,20.52
2023-04-14T04:14:41.349Z,20.66
2023-04-14T04:16:27.349Z,22.17
2023-04-14T04:18:21.970Z,24.99
2023-04-14T04:19:58.718Z,25.82
2023-04-14T04:21:44.533Z,23.30
2023-04-14T04:23:29.821Z,21.42
2023-04-14T04:25:03.509Z,19.49
2023-04-14T04:26:50.600Z,20.87
2023-04-14T04:28:24.020Z,20.00
2023-04-14T04:29:58.707Z,21.63
2023-04-14T04:31:35.405Z,21.70
2023-04-14T04:33:10.209Z,22.27
2023-04-14T04:34:57.147Z,21.50
2023-04-14T04:36:45.177Z,19.96
2023-04-14T04:38:21.492Z,21.04
2023-04-14T04:40:02.770Z,20.43
2023-04-14T04:41:36.541Z,19.73
2023-04-14T04:43:21.930Z,18.93
2023-04-14T04:44:58.124Z,18.95
2023-04-14T04:46:27.309Z,18.55
2023-04-14T04:48:13.021Z,19.74
2023-04-14T04:49:58.820Z,19.61
2023-04-14T04:51:44.810Z,19.87
2023-04-14T04:53:20.800Z,20.52
2023-04-14T04:54:54.778Z,19.41
2023-04-14T04:56:32.834Z,19.84
2023-04-14T04:58:08.642Z,19.58
2023-04-14T04:59:43.594Z,19.78
2023-04-14T05:01:14.768Z,18.48
2023-04-14T05:03:03.668Z,17.94
2023-04-14T05:04:25.869Z,18.79
2023-04-14T05:06:04.850Z,19.80
2023-04-14T05:07:51.431Z,19.18
2023-04-14T05:09:37.154Z,19.27
2023-04-14T05:11:10.588Z,19.25
2023-04-14T05:12:47.048Z,19.17
2023-04-14T05:14:32.223Z,19.00
2023-04-14T05:16:18.787Z,19.18
2023-04-14T05:20:05.743Z,19.09
2023-04-14T05:21:54.099Z,18.82
2023-04-14T05:23:28.099Z,18.71
2023-04-14T05:25:01.714Z,18.83
2023-04-14T05:26:57.777Z,18.59
2023-04-14T05:28:40.783Z,18.51
2023-04-14T05:30:18.761Z,20.36
2023-04-14T05:32:04.017Z,20.58
2023-04-14T05:33:49.576Z,18.48
2023-04-14T05:35:34.909Z,18.32
2023-04-14T05:37:15.689Z,18.92
2023-04-14T05:39:01.748Z,19.46
2023-04-14T05:40:37.475Z,19.33
2023-04-14T05:42:19.370Z,17.62
2023-04-14T05:44:04.543Z,18.20
2023-04-14T05:45:52.711Z,17.87
2023-04-14T05:47:26.226Z,17.65
2023-04-14T05:49:07.846Z,17.53
2023-04-14T05:50:41.589Z,17.43
2023-04-14T05:52:29.561Z,16.86
2023-04-14T05:54:12.594Z,16.64
2023-04-14T05:56:05.442Z,16.83
2023-04-14T05:57:39.229Z,17.20
2023-04-14T05:59:24.524Z,17.75
2023-04-14T06:01:05.194Z,19.80
2023-04-14T06:02:46.366Z,19.34
2023-04-14T06:04:20.721Z,17.51
2023-04-14T06:05:55.554Z,17.82
2023-04-14T06:07:42.018Z,17.46
2023-04-14T06:09:03.941Z,18.42
2023-04-14T06:10:37.575Z,17.61
2023-04-14T06:12:30.855Z,17.42
2023-04-14T06:14:24.312Z,17.41
2023-04-14T06:16:00.621Z,17.14
2023-04-14T06:17:35.728Z,16.43
2023-04-14T06:19:22.099Z,17.19
2023-04-14T06:21:07.588Z,17.18
2023-04-14T06:22:52.997Z,16.98
2023-04-14T06:24:28.478Z,16.64
2023-04-14T06:26:22.442Z,16.78
2023-04-14T06:28:15.219Z,17.43
2023-04-14T06:29:37.696Z,16.41
2023-04-14T06:31:26.423Z,16.78
2023-04-14T06:33:11.471Z,16.06
2023-04-14T06:34:57.627Z,16.69
2023-04-14T06:36:43.855Z,16.61
2023-04-14T06:38:32.139Z,16.79
2023-04-14T06:40:07.229Z,16.15
2023-04-14T06:41:44.763Z,16.21
2023-04-14T06:43:19.870Z,16.03
2023-04-14T06:44:44.685Z,15.23
2023-04-14T06:46:29.775Z,16.71
2023-04-14T06:48:15.166Z,16.43
2023-04-14T06:49:49.654Z,16.43
2023-04-14T06:51:35.936Z,16.13
2023-04-14T06:53:17.729Z,17.09
2023-04-14T06:54:51.635Z,17.14
2023-04-14T06:56:24.723Z,16.33
2023-04-14T06:57:56.364Z,16.02
2023-04-14T06:59:30.024Z,15.98
2023-04-14T07:01:04.201Z,16.10
2023-04-14T07:02:40.166Z,16.30
2023-04-14T07:04:28.145Z,15.83
2023-04-14T07:06:01.997Z,16.85
2023-04-14T07:07:26.327Z,15.76
2023-04-14T07:09:00.241Z,15.95
2023-04-14T07:10:47.030Z,16.42
2023-04-14T07:12:23.166Z,16.27
2023-04-14T07:14:10.426Z,16.21
2023-04-14T07:15:32.269Z,16.19
2023-04-14T07:16:54.125Z,15.37
2023-04-14T07:18:30.318Z,15.88
2023-04-14T07:20:17.822Z,15.37
2023-04-14T07:21:51.230Z,15.00
2023-04-14T07:23:24.804Z,15.09
2023-04-14T07:24:58.521Z,14.67
2023-04-14T07:26:39.208Z,14.76
2023-04-14T07:28:24.459Z,14.05
2023-04-14T07:30:06.281Z,14.36
2023-04-14T07:31:40.181Z,14.25
2023-04-14T07:33:28.441Z,14.30
2023-04-14T07:35:14.658Z,13.23
2023-04-14T07:37:10.064Z,13.61
2023-04-14T07:38:45.100Z,12.56
2023-04-14T07:40:30.226Z,11.82
2023-04-14T07:42:14.426Z,11.74
2023-04-14T07:44:09.678Z,11.88
2023-04-14T07:45:43.633Z,11.43
2023-04-14T07:47:16.996Z,11.37
2023-04-14T07:49:02.875Z,12.34
2023-04-14T07:50:38.819Z,12.30
2023-04-14T07:52:29.652Z,12.77
2023-04-14T07:54:21.224Z,12.42
2023-04-14T07:56:11.861Z,12.60
2023-04-14T07:58:04.078Z,12.69
2023-04-14T07:59:50.534Z,11.21
2023-04-14T08:01:24.608Z,11.74
2023-04-14T08:02:57.874Z,11.58
2023-04-14T08:04:43.894Z,11.11
2023-04-14T08:06:18.198Z,11.31
2023-04-14T08:08:01.755Z,11.66
2023-04-14T08:09:35.855Z,11.31
2023-04-14T08:11:29.638Z,11.58
2023-04-14T08:13:23.558Z,12.57
2023-04-14T08:14:57.604Z,11.77
2023-04-14T08:16:40.905Z,11.24
2023-04-14T08:18:26.458Z,11.63
2023-04-14T08:20:11.624Z,11.67
2023-04-14T08:21:45.919Z,10.82
2023-04-14T08:23:30.913Z,10.24
2023-04-14T08:25:04.655Z,10.54
2023-04-14T08:26:50.723Z,11.19
2023-04-14T08:28:35.712Z,11.14
2023-04-14T08:30:11.711Z,11.63
2023-04-14T08:31:45.779Z,12.58
2023-04-14T08:33:31.097Z,12.61
2023-04-14T08:35:35.696Z,12.06
2023-04-14T08:37:08.411Z,12.07
2023-04-14T08:38:54.137Z,11.88
2023-04-14T08:40:35.150Z,11.54
2023-04-14T08:42:20.788Z,11.82
2023-04-14T08:44:05.365Z,12.47
2023-04-14T08:45:26.826Z,11.22
2023-04-14T08:47:00.629Z,11.39
2023-04-14T08:48:46.500Z,11.74
2023-04-14T08:50:32.323Z,11.46
2023-04-14T08:52:05.570Z,11.33
2023-04-14T08:53:29.655Z,11.71
2023-04-14T08:54:52.163Z,11.60
2023-04-14T08:56:25.460Z,11.61
2023-04-14T08:57:49.799Z,11.65
2023-04-14T08:59:34.655Z,12.26
2023-04-14T09:00:58.812Z,12.01
2023-04-14T09:02:34.964Z,11.70
2023-04-14T09:04:20.405Z,11.22
2023-04-14T09:05:53.896Z,12.70
2023-04-14T09:07:30.443Z,12.58
2023-04-14T09:09:00.168Z,11.77
2023-04-14T09:10:46.288Z,11.84
2023-04-14T09:12:26.168Z,12.00
2023-04-14T09:14:07.165Z,11.48
2023-04-14T09:15:29.379Z,11.77
2023-04-14T09:17:10.034Z,11.52
2023-04-14T09:18:44.122Z,11.19
2023-04-14T09:20:37.619Z,10.62
2023-04-14T09:22:10.051Z,10.63
2023-04-14T09:23:43.994Z,9.98
2023-04-14T09:25:29.087Z,10.12
2023-04-14T09:27:03.332Z,9.26
2023-04-14T09:28:37.138Z,9.70
2023-04-14T09:30:03.704Z,9.96
2023-04-14T09:31:50.097Z,8.53
2023-04-14T09:33:35.287Z,8.72
2023-04-14T09:35:16.244Z,8.26
2023-04-14T09:36:54.384Z,8.91
2023-04-14T09:38:18.574Z,8.84
2023-04-14T09:39:47.675Z,9.19
2023-04-14T09:41:09.412Z,8.86
2023-04-14T09:43:04.649Z,9.00
2023-04-14T09:44:38.342Z,9.53
2023-04-14T09:46:26.683Z,8.97
2023-04-14T09:48:03.966Z,9.33
2023-04-14T09:49:42.279Z,9.27
2023-04-14T09:51:18.320Z,9.34
2023-04-14T09:53:06.271Z,9.21
2023-04-14T09:54:39.956Z,9.03
2023-04-14T09:56:15.803Z,9.78
2023-04-14T10:00:01.660Z,7.71
2023-04-14T10:01:44.408Z,7.19
2023-04-14T10:03:29.309Z,8.33
2023-04-14T10:04:58.823Z,8.63
2023-04-14T10:06:32.577Z,9.71
2023-04-14T10:08:06.525Z,9.15
2023-04-14T10:09:43.238Z,9.42
2023-04-14T10:11:07.526Z,8.75
2023-04-14T10:12:43.591Z,8.75
2023-04-14T10:14:19.086Z,8.59
2023-04-14T10:15:53.432Z,8.65
2023-04-14T10:17:38.709Z,8.28
2023-04-14T10:19:14.646Z,8.60
2023-04-14T10:20:38.862Z,9.12
2023-04-14T10:22:06.599Z,8.97
2023-04-14T10:23:36.638Z,8.15
2023-04-14T10:25:10.098Z,7.70
2023-04-14T10:26:36.597Z,8.69
2023-04-14T10:28:12.103Z,9.31
2023-04-14T10:29:57.724Z,8.68
2023-04-14T10:31:33.344Z,8.10
2023-04-14T10:33:26.833Z,7.53
2023-04-14T10:34:58.228Z,7.62
2023-04-14T10:36:39.585Z,9.17
2023-04-14T10:38:29.034Z,8.75
2023-04-14T10:40:14.054Z,8.75
2023-04-14T10:42:07.665Z,8.81
2023-04-14T10:43:39.551Z,9.62
2023-04-14T10:45:15.463Z,8.77
2023-04-14T10:46:57.363Z,9.41
2023-04-14T10:48:23.382Z,9.01
2023-04-14T10:50:16.899Z,10.12
2023-04-14T10:51:50.401Z,9.88
2023-04-14T10:53:25.826Z,9.57
2023-04-14T10:55:05.626Z,10.42
2023-04-14T10:56:38.820Z,10.46
2023-04-14T10:58:22.906Z,10.38
2023-04-14T10:59:47.647Z,10.81
2023-04-14T11:01:12.202Z,11.31
2023-04-14T11:02:48.375Z,10.84
2023-04-14T11:04:33.204Z,10.20
2023-04-14T11:06:02.504Z,10.27
2023-04-14T11:08:02.396Z,10.24
2023-04-14T11:09:39.068Z,10.43
2023-04-14T11:11:08.257Z,10.50
2023-04-14T11:12:43.093Z,10.04
2023-04-14T11:14:23.201Z,10.86
2023-04-14T11:15:47.980Z,10.46
2023-04-14T11:17:34.158Z,9.70
2023-04-14T11:18:56.438Z,11.37
2023-04-14T11:20:19.282Z,10.99
2023-04-14T11:21:53.932Z,11.66
2023-04-14T11:23:19.300Z,12.20
2023-04-14T11:24:48.962Z,11.49
2023-04-14T11:26:10.644Z,10.75
2023-04-14T11:27:48.650Z,11.57
2023-04-14T11:29:11.141Z,11.71
2023-04-14T11:30:35.911Z,11.50
2023-04-14T11:31:58.171Z,11.63
2023-04-14T11:33:22.004Z,11.41
2023-04-14T11:34:58.308Z,11.70
2023-04-14T11:36:20.037Z,11.59
2023-04-14T11:37:54.357Z,11.38
2023-04-14T11:39:28.888Z,11.46
2023-04-14T11:40:58.254Z,11.28
2023-04-14T11:42:32.428Z,10.79
2023-04-14T11:44:25.790Z,10.90
2023-04-14T11:46:18.764Z,11.09
2023-04-14T11:48:04.431Z,11.26
2023-04-14T11:49:37.780Z,11.41
2023-04-14T11:51:13.602Z,11.43
2023-04-14T11:53:07.259Z,10.04
2023-04-14T11:54:52.548Z,9.99
2023-04-14T11:56:27.828Z,10.02
2023-04-14T11:58:03.271Z,10.16
2023-04-14T11:59:36.681Z,9.56
2023-04-14T12:00:58.525Z,9.24
2023-04-14T12:02:20.393Z,9.92
2023-04-14T12:03:50.289Z,9.63
2023-04-14T12:05:12.386Z,9.33
2023-04-14T12:06:45.989Z,9.40
2023-04-14T12:08:19.350Z,9.25
2023-04-14T12:10:04.679Z,8.90
2023-04-14T12:11:40.439Z,9.21
2023-04-14T12:13:23.688Z,8.78
2023-04-14T12:14:57.054Z,8.48
2023-04-14T12:16:42.879Z,8.64
2023-04-14T12:19:49.941Z,7.37
2023-04-14T12:21:25.677Z,7.72
2023-04-14T12:23:11.209Z,8.62
2023-04-14T12:24:47.361Z,8.71
2023-04-14T12:26:20.978Z,8.15
2023-04-14T12:28:05.909Z,8.25
2023-04-14T12:29:36.466Z,7.56
2023-04-14T12:31:19.385Z,7.72
2023-04-14T12:33:02.947Z,7.96
2023-04-14T12:34:36.644Z,8.06
2023-04-14T12:36:12.209Z,7.81
2023-04-14T12:37:46.147Z,8.98
2023-04-14T12:39:30.906Z,9.01
2023-04-14T12:41:16.408Z,9.39
2023-04-14T12:43:10.033Z,9.95
2023-04-14T12:44:43.906Z,10.60
2023-04-14T12:46:28.867Z,11.53
2023-04-14T12:48:10.833Z,9.83
2023-04-14T12:50:02.888Z,10.09
2023-04-14T12:51:36.342Z,10.18
2023-04-14T12:53:00.292Z,11.09
2023-04-14T12:54:34.349Z,10.14
2023-04-14T12:56:16.076Z,10.49
2023-04-14T12:57:49.896Z,10.09
2023-04-14T12:59:11.983Z,10.67
2023-04-14T13:00:57.924Z,10.33
2023-04-14T13:02:24.844Z,9.91
2023-04-14T13:03:58.679Z,11.04
2023-04-14T13:05:20.429Z,10.67
2023-04-14T13:06:50.626Z,11.52
2023-04-14T13:08:26.111Z,10.76
2023-04-14T13:10:08.323Z,9.98
2023-04-14T13:11:40.405Z,11.05
2023-04-14T13:13:34.695Z,11.04
2023-04-14T13:16:10.456Z,12.19
2023-04-14T13:17:24.662Z,12.00
2023-04-14T13:18:59.202Z,11.15
2023-04-14T13:20:33.045Z,11.23
2023-04-14T13:21:56.869Z,11.20
2023-04-14T13:23:37.216Z,11.24
2023-04-14T13:25:17.616Z,11.70
2023-04-14T13:26:41.773Z,11.56
2023-04-14T13:28:03.768Z,11.47
2023-04-14T13:29:37.048Z,11.75
2023-04-14T13:31:23.358Z,11.23
2023-04-14T13:32:59.646Z,11.68
2023-04-14T13:34:45.620Z,11.95
2023-04-14T13:36:30.509Z,11.17
2023-04-14T13:38:07.007Z,11.60
2023-04-14T13:39:52.561Z,10.77
2023-04-14T13:41:33.887Z,11.90
2023-04-14T13:43:05.337Z,12.07
2023-04-14T13:44:39.212Z,12.19
2023-04-14T13:46:24.483Z,12.54
2023-04-14T13:48:01.345Z,11.97
2023-04-14T13:49:31.959Z,12.50
2023-04-14T13:50:55.600Z,13.41
2023-04-14T13:52:41.173Z,12.53
2023-04-14T13:54:02.950Z,12.53
2023-04-14T13:55:36.623Z,11.84
2023-04-14T13:57:24.673Z,11.17
2023-04-14T13:59:11.864Z,11.44
2023-04-14T14:00:52.197Z,11.07
2023-04-14T14:02:21.491Z,11.15
2023-04-14T14:03:55.143Z,12.24
2023-04-14T14:05:35.453Z,11.53
2023-04-14T14:07:11.177Z,11.96
2023-04-14T14:08:41.862Z,11.30
2023-04-14T14:10:11.037Z,12.27
2023-04-14T14:11:47.109Z,11.83
2023-04-14T14:13:20.514Z,12.04
2023-04-14T14:14:44.977Z,12.04
2023-04-14T14:16:35.970Z,12.73
2023-04-14T14:18:21.998Z,11.70
2023-04-14T14:19:56.481Z,11.90
2023-04-14T14:21:32.622Z,12.55
2023-04-14T14:23:06.177Z,11.31
2023-04-14T14:24:39.262Z,11.54
2023-04-14T14:26:24.154Z,12.34
2023-04-14T14:28:09.440Z,10.71
2023-04-14T14:29:31.881Z,11.70
2023-04-14T14:31:05.703Z,11.41
2023-04-14T14:32:40.327Z,10.80
2023-04-14T14:34:21.240Z,10.62
2023-04-14T14:35:57.568Z,10.98
2023-04-14T14:37:44.017Z,10.29
2023-04-14T14:39:37.704Z,10.69
2023-04-14T14:43:44.988Z,10.53
2023-04-14T14:45:31.383Z,10.97
2023-04-14T14:47:17.516Z,10.53
2023-04-14T14:48:38.214Z,10.18
2023-04-14T14:50:10.920Z,10.10
2023-04-14T14:51:52.312Z,10.03
2023-04-14T14:53:14.881Z,10.01
2023-04-14T14:54:49.500Z,10.31
2023-04-14T14:56:21.882Z,9.81
2023-04-14T14:58:02.298Z,10.71
2023-04-14T14:59:42.287Z,9.97
2023-04-14T15:01:14.553Z,10.62
2023-04-14T15:02:37.875Z,10.51
2023-04-14T15:04:23.150Z,11.06
2023-04-14T15:05:51.615Z,10.57
2023-04-14T15:07:12.440Z,10.77
2023-04-14T15:08:56.746Z,10.08
2023-04-14T15:10:41.582Z,9.83
2023-04-14T15:12:14.456Z,9.93
2023-04-14T15:13:58.658Z,10.03
2023-04-14T15:15:33.245Z,9.87
2023-04-14T15:17:17.432Z,10.28
2023-04-14T15:19:01.322Z,9.49
2023-04-14T15:20:54.511Z,9.79
2023-04-14T15:22:17.068Z,9.88
2023-04-14T15:23:43.393Z,9.86
2023-04-14T15:25:12.697Z,10.41
2023-04-14T15:26:56.886Z,10.33
2023-04-14T15:28:19.825Z,9.65
2023-04-14T15:29:40.356Z,9.06
2023-04-14T15:31:01.058Z,9.77
2023-04-14T15:32:26.367Z,8.01
2023-04-14T15:33:54.434Z,8.17
2023-04-14T15:35:30.329Z,8.32
2023-04-14T15:36:51.090Z,8.26
2023-04-14T15:38:36.875Z,7.33
2023-04-14T15:40:12.214Z,7.26
2023-04-14T15:41:40.073Z,7.17
2023-04-14T15:43:20.119Z,7.32
2023-04-14T15:44:48.028Z,7.42
2023-04-14T15:46:32.256Z,7.45
2023-04-14T15:48:16.375Z,7.08
2023-04-14T15:49:39.189Z,6.69
2023-04-14T15:51:11.211Z,7.15
2023-04-14T15:52:46.043Z,7.21
2023-04-14T15:54:38.571Z,6.76
2023-04-14T15:56:22.239Z,7.21
2023-04-14T15:58:06.249Z,6.92
2023-04-14T15:59:40.500Z,6.92
2023-04-14T16:01:16.782Z,6.77
2023-04-14T16:02:45.550Z,6.12
2023-04-14T16:04:33.950Z,7.06
2023-04-14T16:06:06.743Z,6.59
2023-04-14T16:07:37.567Z,6.51
2023-04-14T16:09:09.446Z,6.59
2023-04-14T16:10:30.038Z,6.82
2023-04-14T16:11:50.265Z,6.95
2023-04-14T16:13:30.386Z,6.80
2023-04-14T16:14:54.229Z,6.14
2023-04-14T16:16:30.039Z,6.33
2023-04-14T16:18:04.257Z,6.67
2023-04-14T16:19:32.635Z,6.42
2023-04-14T16:20:57.552Z,6.59
2023-04-14T16:22:34.030Z,6.53
2023-04-14T16:24:13.528Z,6.54
2023-04-14T16:25:37.642Z,7.05
2023-04-14T16:27:00.860Z,6.76
2023-04-14T16:28:45.008Z,6.57
2023-04-14T16:30:20.009Z,7.03
2023-04-14T16:31:52.249Z,7.44
2023-04-14T16:33:13.355Z,6.87
2023-04-14T16:34:52.660Z,7.16
2023-04-14T16:36:12.677Z,7.02
2023-04-14T16:38:05.512Z,7.66
2023-04-14T16:39:32.994Z,6.89
2023-04-14T16:40:55.711Z,6.79
2023-04-14T16:42:25.945Z,6.70
2023-04-14T16:44:00.488Z,6.88
2023-04-14T16:45:34.842Z,7.03
2023-04-14T16:47:06.738Z,7.38
2023-04-14T16:48:30.080Z,7.45
2023-04-14T16:50:10.844Z,7.58
2023-04-14T16:51:33.827Z,7.53
2023-04-14T16:53:17.946Z,7.49
2023-04-14T16:54:50.209Z,7.38
2023-04-14T16:56:24.534Z,7.85
2023-04-14T16:58:07.747Z,7.50
2023-04-14T17:00:00.665Z,7.76
2023-04-14T17:01:40.058Z,8.22
2023-04-14T17:03:14.624Z,15.99
2023-04-14T17:04:45.696Z,13.67
2023-04-14T17:06:38.022Z,22.84
2023-04-14T17:08:21.240Z,7.84
2023-04-14T17:09:44.560Z,7.43
2023-04-14T17:11:24.266Z,7.81
2023-04-14T17:12:56.451Z,7.61
2023-04-14T17:14:37.495Z,7.94
2023-04-14T17:16:21.989Z,7.49
2023-04-14T17:17:54.095Z,30.46
2023-04-14T17:19:21.454Z,10.58
2023-04-14T17:20:41.856Z,7.90
2023-04-14T17:22:20.563Z,8.48
2023-04-14T17:23:56.496Z,8.29
2023-04-14T17:25:41.469Z,8.34
2023-04-14T17:27:14.625Z,8.37
2023-04-14T17:28:45.367Z,9.04
2023-04-14T17:30:10.257Z,8.85
2023-04-14T17:31:42.026Z,9.31
2023-04-14T17:33:16.451Z,8.84
2023-04-14T17:34:51.158Z,9.38
2023-04-14T17:36:43.483Z,10.27
2023-04-14T17:38:08.861Z,9.26
2023-04-14T17:39:28.870Z,9.80
2023-04-14T17:41:01.666Z,10.32
2023-04-14T17:42:34.205Z,9.52
2023-04-14T17:44:07.369Z,10.60
2023-04-14T17:45:43.043Z,10.57
2023-04-14T17:47:22.151Z,9.49
2023-04-14T17:48:54.752Z,9.10
2023-04-14T17:50:22.524Z,8.99
2023-04-14T17:51:43.895Z,9.32
2023-04-14T17:53:23.232Z,9.92
2023-04-14T17:54:55.497Z,10.62
2023-04-14T17:56:27.174Z,9.33
2023-04-14T17:57:50.500Z,9.69
2023-04-14T17:59:12.070Z,9.83
2023-04-14T18:00:39.965Z,10.36
2023-04-14T18:02:21.236Z,10.35
2023-04-14T18:04:05.346Z,10.24
2023-04-14T18:05:28.147Z,9.48
2023-04-14T18:07:02.909Z,9.13
2023-04-14T18:08:43.060Z,9.89
2023-04-14T18:10:04.012Z,9.21
2023-04-14T18:11:48.056Z,9.13
2023-04-14T18:13:18.458Z,9.10
2023-04-14T18:14:38.817Z,9.59
2023-04-14T18:16:01.335Z,10.06
2023-04-14T18:17:28.739Z,8.92
2023-04-14T18:18:58.443Z,8.77
2023-04-14T18:20:32.849Z,8.95
2023-04-14T18:22:07.795Z,8.86
2023-04-14T18:23:29.289Z,8.11
2023-04-14T18:24:50.195Z,8.73
2023-04-14T18:29:21.845Z,7.60
2023-04-14T18:30:45.915Z,8.18
2023-04-14T18:32:13.898Z,8.52
2023-04-14T18:33:55.632Z,8.38
2023-04-14T18:35:42.665Z,8.78
2023-04-14T18:37:05.190Z,8.48
2023-04-14T18:38:27.600Z,8.42
2023-04-14T18:40:11.195Z,8.49
2023-04-14T18:41:34.289Z,9.54
2023-04-14T18:42:56.667Z,10.11
2023-04-14T18:44:36.136Z,9.15
2023-04-14T18:46:11.294Z,9.02
2023-04-14T18:47:51.140Z,8.85
2023-04-14T18:49:23.290Z,8.73
2023-04-14T18:51:07.169Z,9.02
2023-04-14T18:52:50.587Z,9.18
2023-04-14T18:54:25.561Z,8.56
2023-04-14T18:55:47.388Z,8.97
2023-04-14T18:57:32.435Z,9.18
2023-04-14T18:58:53.056Z,9.46
2023-04-14T19:00:23.356Z,8.37
2023-04-14T19:01:55.733Z,8.48
2023-04-14T19:03:36.127Z,9.07
2023-04-14T19:05:06.563Z,9.21
2023-04-14T19:06:39.681Z,9.05
2023-04-14T19:08:23.221Z,9.18
2023-04-14T19:10:03.500Z,8.99
2023-04-14T19:11:44.519Z,9.70
2023-04-14T19:13:27.977Z,9.83
2023-04-14T19:15:11.556Z,9.84
2023-04-14T19:16:34.920Z,8.79
2023-04-14T19:18:09.146Z,9.44
2023-04-14T19:19:53.576Z,9.99
2023-04-14T19:21:13.470Z,9.99
2023-04-14T19:22:37.193Z,9.26
2023-04-14T19:24:20.434Z,9.17
2023-04-14T19:26:04.555Z,8.96
2023-04-14T19:27:24.749Z,8.14
2023-04-14T19:28:56.759Z,8.70
2023-04-14T19:30:40.616Z,9.47
2023-04-14T19:32:03.116Z,9.06
2023-04-14T19:33:42.861Z,9.05
2023-04-14T19:35:14.618Z,8.87
2023-04-14T19:36:59.726Z,9.03
2023-04-14T19:38:32.572Z,9.02
2023-04-14T19:40:05.758Z,8.48
2023-04-14T19:41:26.276Z,8.79
2023-04-14T19:42:58.790Z,8.18
2023-04-14T19:44:33.541Z,8.35
2023-04-14T19:46:13.173Z,8.77
2023-04-14T19:47:47.371Z,9.24
2023-04-14T19:49:19.105Z,8.61
2023-04-14T19:50:51.334Z,8.93
2023-04-14T19:52:23.792Z,8.38
2023-04-14T19:53:55.934Z,8.96
2023-04-14T19:55:37.084Z,8.46
2023-04-14T19:57:07.198Z,8.44
2023-04-14T19:58:31.929Z,9.02
2023-04-14T20:00:23.774Z,8.53
2023-04-14T20:02:01.804Z,8.88
2023-04-14T20:03:22.551Z,8.36
2023-04-14T20:04:56.705Z,8.93
2023-04-14T20:06:34.240Z,8.83
2023-04-14T20:08:06.082Z,8.61
2023-04-14T20:09:44.010Z,8.49
2023-04-14T20:11:31.259Z,9.20
2023-04-14T20:12:54.099Z,8.66
2023-04-14T20:14:22.038Z,8.93
2023-04-14T20:15:57.010Z,8.81
2023-04-14T20:17:33.099Z,8.58
2023-04-14T20:19:05.323Z,8.38
2023-04-14T20:20:33.837Z,8.83
2023-04-14T20:22:03.950Z,8.86
2023-04-14T20:23:37.764Z,9.03
2023-04-14T20:25:09.343Z,9.41
2023-04-14T20:26:43.530Z,9.10
2023-04-14T20:28:30.181Z,8.84
2023-04-14T20:29:54.859Z,8.55
2023-04-14T20:31:38.463Z,8.80
2023-04-14T20:33:17.698Z,8.08
2023-04-14T20:34:40.149Z,8.62
2023-04-14T20:36:19.725Z,9.16
2023-04-14T20:37:51.930Z,9.11
2023-04-14T20:39:28.569Z,9.48
2023-04-14T20:41:08.242Z,9.10
2023-04-14T20:42:45.839Z,9.17
2023-04-14T20:44:17.514Z,9.61
2023-04-14T20:45:51.735Z,8.80
2023-04-14T20:47:16.724Z,9.56
2023-04-14T20:48:50.990Z,8.81
2023-04-14T20:50:13.670Z,9.12
2023-04-14T20:51:47.952Z,9.48
2023-04-14T20:53:22.061Z,9.18
2023-04-14T20:54:56.527Z,9.10
2023-04-14T20:56:19.222Z,8.76
2023-04-14T20:57:58.021Z,9.55
2023-04-14T20:59:30.313Z,9.33
2023-04-14T21:01:02.876Z,8.41
2023-04-14T21:02:46.401Z,8.84
2023-04-14T21:04:09.530Z,8.84
2023-04-14T21:05:44.068Z,8.65
2023-04-14T21:07:04.875Z,8.84
2023-04-14T21:08:24.764Z,9.36
2023-04-14T21:09:46.144Z,8.49
2023-04-14T21:11:18.765Z,9.04
2023-04-14T21:14:52.038Z,8.56